createdAt,value
2022-08-08T00:00:56.317Z,6.4
2022-08-08T00:02:31.646Z,5.5
2022-08-08T00:04:11.006Z,6.3
2022-08-08T00:06:09.274Z,7.6
2022-08-08T00:10:08.405Z,6.8
2022-08-08T00:12:10.496Z,7.0
2022-08-08T00:14:17.294Z,6.4
2022-08-08T00:18:09.499Z,6.0
2022-08-08T00:20:06.389Z,7.7
2022-08-08T00:22:05.055Z,6.0
2022-08-08T00:24:05.979Z,7.5
2022-08-08T00:30:04.609Z,7.8
2022-08-08T00:32:32.618Z,6.2
2022-08-08T00:34:26.851Z,9.1
2022-08-08T00:36:05.278Z,6.9
2022-08-08T00:38:17.010Z,6.5
2022-08-08T00:41:12.079Z,7.3
2022-08-08T00:42:31.670Z,7.3
2022-08-08T00:46:16.370Z,9.4
2022-08-08T00:48:29.909Z,7.2
2022-08-08T00:50:19.550Z,9.1
2022-08-08T00:52:20.248Z,7.6
2022-08-08T00:54:19.144Z,5.9
2022-08-08T00:56:19.005Z,7.8
2022-08-08T00:58:18.732Z,5.2
2022-08-08T01:00:06.742Z,6.2
2022-08-08T01:03:57.471Z,6.8
2022-08-08T01:04:18.388Z,6.7
2022-08-08T01:06:27.004Z,7.5
2022-08-08T01:08:18.192Z,6.6
2022-08-08T01:10:18.050Z,9.7
2022-08-08T01:12:17.889Z,8.2
2022-08-08T01:14:17.789Z,8.9
2022-08-08T01:16:16.865Z,6.8
2022-08-08T01:18:25.362Z,7.3
2022-08-08T01:20:17.449Z,8.8
2022-08-08T01:22:15.803Z,8.3
2022-08-08T01:24:17.193Z,9.8
2022-08-08T01:26:16.478Z,9.3
2022-08-08T01:28:10.735Z,8.2
2022-08-08T01:30:16.742Z,10.1
2022-08-08T01:32:17.406Z,9.3
2022-08-08T01:36:17.809Z,9.5
2022-08-08T01:38:11.877Z,9.3
2022-08-08T01:40:14.710Z,10.3
2022-08-08T01:42:04.712Z,7.1
2022-08-08T01:44:12.213Z,8.8
2022-08-08T01:46:01.822Z,8.7
2022-08-08T01:48:16.133Z,8.3
2022-08-08T01:50:05.938Z,7.4
2022-08-08T01:53:14.866Z,6.2
2022-08-08T01:55:17.046Z,8.8
2022-08-08T01:56:27.641Z,8.1
2022-08-08T01:58:13.773Z,7.8
2022-08-08T02:00:07.862Z,7.6
2022-08-08T02:02:08.309Z,8.2
2022-08-08T02:04:08.749Z,7.4
2022-08-08T02:06:03.286Z,10.2
2022-08-08T02:08:04.580Z,12.0
2022-08-08T02:10:13.824Z,7.5
2022-08-08T02:16:01.192Z,7.7
2022-08-08T02:20:09.784Z,8.0
2022-08-08T02:24:01.557Z,9.4
2022-08-08T02:26:00.764Z,7.6
2022-08-08T02:28:00.918Z,8.4
2022-08-08T02:30:03.283Z,9.9
2022-08-08T02:32:09.775Z,8.3
2022-08-08T02:34:08.442Z,6.8
2022-08-08T02:36:12.565Z,9.1
2022-08-08T02:38:12.742Z,9.2
2022-08-08T02:40:00.076Z,8.4
2022-08-08T02:42:11.911Z,9.3
2022-08-08T02:44:42.887Z,7.1
2022-08-08T02:46:11.443Z,8.3
2022-08-08T02:48:12.044Z,7.9
2022-08-08T02:50:17.751Z,8.6
2022-08-08T02:52:11.495Z,8.8
2022-08-08T02:53:59.436Z,10.5
2022-08-08T02:56:10.490Z,7.3
2022-08-08T02:58:10.370Z,7.8
2022-08-08T03:00:26.969Z,10.2
2022-08-08T03:02:10.081Z,11.6
2022-08-08T03:05:04.488Z,8.1
2022-08-08T03:06:09.818Z,9.0
2022-08-08T03:08:09.623Z,10.6
2022-08-08T03:10:09.502Z,11.0
2022-08-08T03:16:01.307Z,9.2
2022-08-08T03:16:06.887Z,9.9
2022-08-08T03:18:04.549Z,8.8
2022-08-08T03:20:03.685Z,9.5
2022-08-08T03:21:58.884Z,8.2
2022-08-08T03:23:59.228Z,10.2
2022-08-08T03:27:56.315Z,8.5
2022-08-08T03:29:55.605Z,9.1
2022-08-08T03:32:06.393Z,9.8
2022-08-08T03:33:55.161Z,9.2
2022-08-08T03:35:49.946Z,9.1
2022-08-08T03:38:54.181Z,10.1
2022-08-08T03:42:29.102Z,9.7
2022-08-08T03:46:05.980Z,10.4
2022-08-08T03:47:55.291Z,8.6
2022-08-08T03:49:59.680Z,9.2
2022-08-08T03:51:51.668Z,10.0
2022-08-08T03:53:47.704Z,9.0
2022-08-08T03:55:57.621Z,11.5
2022-08-08T04:00:02.816Z,10.7
2022-08-08T04:02:32.866Z,11.2
2022-08-08T04:03:58.235Z,11.4
2022-08-08T04:05:49.586Z,12.5
2022-08-08T04:07:45.667Z,10.1
2022-08-08T04:09:59.377Z,12.2
2022-08-08T04:11:57.687Z,11.0
2022-08-08T04:14:04.014Z,9.1
2022-08-08T04:15:54.950Z,9.8
2022-08-08T04:17:57.896Z,10.7
2022-08-08T04:19:44.399Z,8.3
2022-08-08T04:21:45.707Z,10.9
2022-08-08T04:24:05.184Z,9.5
2022-08-08T04:25:44.077Z,9.4
2022-08-08T04:28:34.999Z,11.7
2022-08-08T04:29:44.855Z,13.3
2022-08-08T04:31:58.716Z,11.8
2022-08-08T04:33:43.254Z,11.8
2022-08-08T04:35:51.391Z,10.6
2022-08-08T04:37:42.918Z,11.3
2022-08-08T04:41:42.490Z,11.6
2022-08-08T04:43:45.230Z,11.2
2022-08-08T04:45:42.279Z,10.8
2022-08-08T04:47:46.389Z,9.8
2022-08-08T04:50:01.197Z,12.7
2022-08-08T04:51:56.961Z,11.9
2022-08-08T04:55:55.553Z,11.5
2022-08-08T04:57:41.450Z,9.7
2022-08-08T04:59:42.275Z,9.9
2022-08-08T05:01:48.695Z,10.4
2022-08-08T05:04:09.956Z,9.7
2022-08-08T05:05:44.623Z,11.2
2022-08-08T05:07:42.755Z,11.4
2022-08-08T05:09:40.381Z,11.4
2022-08-08T05:11:40.882Z,13.7
2022-08-08T05:13:39.846Z,11.5
2022-08-08T05:16:54.289Z,15.1
2022-08-08T05:17:54.584Z,12.4
2022-08-08T05:20:09.517Z,11.6
2022-08-08T05:21:43.676Z,12.7
2022-08-08T05:25:41.371Z,14.1
2022-08-08T05:27:44.188Z,13.3
2022-08-08T05:29:38.144Z,13.2
2022-08-08T05:32:04.230Z,14.6
2022-08-08T05:33:39.410Z,14.6
2022-08-08T05:35:41.318Z,14.8
2022-08-08T05:37:51.736Z,15.4
2022-08-08T05:39:40.725Z,14.7
2022-08-08T05:41:55.451Z,17.1
2022-08-08T05:44:03.343Z,16.3
2022-08-08T05:45:43.187Z,16.5
2022-08-08T05:47:52.690Z,14.5
2022-08-08T05:49:38.135Z,17.9
2022-08-08T05:51:48.077Z,16.2
2022-08-08T05:54:24.350Z,16.2
2022-08-08T05:56:08.014Z,18.4
2022-08-08T05:58:03.783Z,16.9
2022-08-08T05:59:53.634Z,16.2
2022-08-08T06:01:56.440Z,20.8
2022-08-08T06:03:39.385Z,16.1
2022-08-08T06:05:41.460Z,19.0
2022-08-08T06:07:39.069Z,18.7
2022-08-08T06:09:59.350Z,17.5
2022-08-08T06:11:37.059Z,18.0
2022-08-08T06:13:36.481Z,18.0
2022-08-08T06:15:51.091Z,17.5
2022-08-08T06:18:18.781Z,20.0
2022-08-08T06:19:35.273Z,17.8
2022-08-08T06:21:51.540Z,17.3
2022-08-08T06:23:52.634Z,16.5
2022-08-08T06:26:43.124Z,19.2
2022-08-08T06:27:38.809Z,18.3
2022-08-08T06:29:59.501Z,19.4
2022-08-08T06:31:52.321Z,16.0
2022-08-08T06:34:25.822Z,17.5
2022-08-08T06:36:08.417Z,14.8
2022-08-08T06:39:34.341Z,16.2
2022-08-08T06:41:33.466Z,16.2
2022-08-08T06:43:35.071Z,14.9
2022-08-08T06:45:33.071Z,14.9
2022-08-08T06:47:52.489Z,16.9
2022-08-08T06:49:55.932Z,17.9
2022-08-08T06:51:49.032Z,16.0
2022-08-08T06:53:39.601Z,13.9
2022-08-08T06:55:37.633Z,14.8
2022-08-08T06:57:54.936Z,14.8
2022-08-08T06:59:43.380Z,15.2
2022-08-08T07:02:26.359Z,14.4
2022-08-08T07:03:52.728Z,12.9
2022-08-08T07:05:40.419Z,13.3
2022-08-08T07:07:39.927Z,12.8
2022-08-08T07:09:41.472Z,12.5
2022-08-08T07:11:46.170Z,14.8
2022-08-08T07:16:04.533Z,12.6
2022-08-08T07:17:56.730Z,13.4
2022-08-08T07:19:40.182Z,13.8
2022-08-08T07:21:41.278Z,11.8
2022-08-08T07:24:01.221Z,12.9
2022-08-08T07:25:37.969Z,13.4
2022-08-08T07:28:00.611Z,14.0
2022-08-08T07:29:59.659Z,13.6
2022-08-08T07:31:30.668Z,13.0
2022-08-08T07:33:37.977Z,13.1
2022-08-08T07:35:30.960Z,11.4
2022-08-08T07:41:58.805Z,13.0
2022-08-08T07:43:36.834Z,11.5
2022-08-08T07:45:34.609Z,14.1
2022-08-08T07:47:38.971Z,11.9
2022-08-08T07:49:29.715Z,12.1
2022-08-08T07:51:45.470Z,12.3
2022-08-08T07:54:01.486Z,9.9
2022-08-08T07:55:30.364Z,10.2
2022-08-08T07:57:48.781Z,10.5
2022-08-08T07:59:37.850Z,11.4
2022-08-08T08:02:34.718Z,11.5
2022-08-08T08:03:43.405Z,11.4
2022-08-08T08:05:33.512Z,9.8
2022-08-08T08:07:38.944Z,10.8
2022-08-08T08:09:36.551Z,9.9
2022-08-08T08:11:51.741Z,9.9
2022-08-08T08:13:42.568Z,10.6
2022-08-08T08:15:32.213Z,8.5
2022-08-08T08:17:36.400Z,11.4
2022-08-08T08:19:31.968Z,9.3
2022-08-08T08:23:29.213Z,8.4
2022-08-08T08:25:42.963Z,7.1
2022-08-08T08:27:30.192Z,8.0
2022-08-08T08:29:28.748Z,7.6
2022-08-08T08:31:28.424Z,10.3
2022-08-08T08:35:29.825Z,8.6
2022-08-08T08:37:30.458Z,8.9
2022-08-08T08:39:59.704Z,7.7
2022-08-08T08:41:30.990Z,8.7
2022-08-08T08:43:29.399Z,7.5
2022-08-08T08:45:28.461Z,8.6
2022-08-08T08:47:43.641Z,6.8
2022-08-08T08:49:33.577Z,7.7
2022-08-08T08:51:29.460Z,7.8
2022-08-08T08:53:58.857Z,6.2
2022-08-08T08:55:32.258Z,10.7
2022-08-08T08:57:29.323Z,7.0
2022-08-08T08:59:59.324Z,7.9
2022-08-08T09:01:32.331Z,7.7
2022-08-08T09:03:45.513Z,8.0
2022-08-08T09:05:54.368Z,7.4
2022-08-08T09:07:39.120Z,5.7
2022-08-08T09:09:40.180Z,8.8
2022-08-08T09:11:33.052Z,7.1
2022-08-08T09:13:28.818Z,6.6
2022-08-08T09:15:41.602Z,8.5
2022-08-08T09:17:40.904Z,6.9
2022-08-08T09:21:56.280Z,8.5
2022-08-08T09:21:57.969Z,9.3
2022-08-08T09:23:33.574Z,6.2
2022-08-08T09:25:36.308Z,7.9
2022-08-08T09:27:57.032Z,6.8
2022-08-08T09:29:33.353Z,6.6
2022-08-08T09:31:56.773Z,5.1
2022-08-08T09:34:16.162Z,7.1
2022-08-08T09:35:32.178Z,6.2
2022-08-08T09:38:00.937Z,7.8
2022-08-08T09:39:32.787Z,8.8
2022-08-08T09:41:54.942Z,7.7
2022-08-08T09:43:40.725Z,6.1
2022-08-08T09:45:54.596Z,7.4
2022-08-08T09:48:03.899Z,7.5
2022-08-08T09:49:42.442Z,5.0
2022-08-08T09:51:30.474Z,9.3
2022-08-08T09:53:59.069Z,8.1
2022-08-08T09:55:31.645Z,6.8
2022-08-08T09:57:35.067Z,10.4
2022-08-08T09:59:57.152Z,7.0
2022-08-08T10:01:59.878Z,6.7
2022-08-08T10:05:32.960Z,5.7
2022-08-08T10:07:28.031Z,6.3
2022-08-08T10:09:30.054Z,5.5
2022-08-08T10:12:28.148Z,5.6
2022-08-08T10:13:35.497Z,7.0
2022-08-08T10:15:36.788Z,6.4
2022-08-08T10:17:56.767Z,6.3
2022-08-08T10:19:46.154Z,5.4
2022-08-08T10:21:32.938Z,6.7
2022-08-08T10:23:41.850Z,8.6
2022-08-08T10:25:28.195Z,9.4
2022-08-08T10:29:56.821Z,4.8
2022-08-08T10:31:46.600Z,6.8
2022-08-08T10:33:38.466Z,5.4
2022-08-08T10:36:09.078Z,5.5
2022-08-08T10:37:30.883Z,6.5
2022-08-08T10:39:31.688Z,5.0
2022-08-08T10:41:35.651Z,4.0
2022-08-08T10:43:37.540Z,5.9
2022-08-08T10:45:29.840Z,6.8
2022-08-08T10:47:30.546Z,5.0
2022-08-08T10:50:01.899Z,5.2
2022-08-08T10:51:47.596Z,4.2
2022-08-08T10:53:56.753Z,4.5
2022-08-08T10:57:45.056Z,7.6
2022-08-08T10:59:30.930Z,5.1
2022-08-08T11:04:01.304Z,3.4
2022-08-08T11:05:38.271Z,5.0
2022-08-08T11:08:31.649Z,4.4
2022-08-08T11:12:05.658Z,5.0
2022-08-08T11:17:58.571Z,5.2
2022-08-08T11:19:29.451Z,4.1
2022-08-08T11:21:35.714Z,4.1
2022-08-08T11:23:33.036Z,5.0
2022-08-08T11:25:53.144Z,4.9
2022-08-08T11:27:37.006Z,4.0
2022-08-08T11:29:50.971Z,3.1
2022-08-08T11:33:53.174Z,2.4
2022-08-08T11:35:37.556Z,3.2
2022-08-08T11:38:07.299Z,4.0
2022-08-08T11:43:39.277Z,2.5
2022-08-08T11:45:30.164Z,3.8
2022-08-08T11:51:38.860Z,3.1
2022-08-08T11:53:30.757Z,4.0
2022-08-08T11:55:31.003Z,3.1
2022-08-08T11:57:34.773Z,3.3
2022-08-08T12:00:01.037Z,3.0
2022-08-08T12:01:31.434Z,4.3
2022-08-08T12:03:33.277Z,4.4
2022-08-08T12:05:33.644Z,4.6
2022-08-08T12:07:31.884Z,4.1
2022-08-08T12:09:59.405Z,3.7
2022-08-08T12:11:37.719Z,4.4
2022-08-08T12:13:38.404Z,4.0
2022-08-08T12:15:41.891Z,3.4
2022-08-08T12:19:37.489Z,4.1
2022-08-08T12:21:59.849Z,2.9
2022-08-08T12:23:43.752Z,4.8
2022-08-08T12:25:34.101Z,3.7
2022-08-08T12:27:45.169Z,2.5
2022-08-08T12:29:42.107Z,3.1
2022-08-08T12:31:39.442Z,4.2
2022-08-08T12:33:37.718Z,4.1
2022-08-08T12:35:38.822Z,4.7
2022-08-08T12:39:56.471Z,3.3
2022-08-08T12:41:56.774Z,3.5
2022-08-08T12:43:47.841Z,4.2
2022-08-08T12:45:57.789Z,4.9
2022-08-08T12:47:58.618Z,3.6
2022-08-08T12:49:43.095Z,3.6
2022-08-08T12:51:41.717Z,6.1
2022-08-08T12:53:36.417Z,2.8
2022-08-08T12:55:50.330Z,2.7
2022-08-08T12:57:49.534Z,3.6
2022-08-08T13:00:03.564Z,2.8
2022-08-08T13:01:36.963Z,3.4
2022-08-08T13:03:34.367Z,5.3
2022-08-08T13:06:04.364Z,3.3
2022-08-08T13:08:02.254Z,3.4
2022-08-08T13:12:17.987Z,3.4
2022-08-08T13:15:35.317Z,4.2
2022-08-08T13:17:54.191Z,3.8
2022-08-08T13:19:41.253Z,3.2
2022-08-08T13:21:53.197Z,3.3
2022-08-08T13:23:36.743Z,2.8
2022-08-08T13:25:35.461Z,3.2
2022-08-08T13:27:35.944Z,4.8
2022-08-08T13:29:40.772Z,4.7
2022-08-08T13:31:44.915Z,3.5
2022-08-08T13:33:42.674Z,2.8
2022-08-08T13:35:38.953Z,3.0
2022-08-08T13:38:05.570Z,3.3
2022-08-08T13:41:37.786Z,3.7
2022-08-08T13:43:36.659Z,3.4
2022-08-08T13:45:36.655Z,3.2
2022-08-08T13:50:36.351Z,4.5
2022-08-08T13:51:41.482Z,4.9
2022-08-08T13:53:39.929Z,4.1
2022-08-08T13:57:46.308Z,3.9
2022-08-08T13:59:39.483Z,3.4
2022-08-08T14:01:52.929Z,3.8
2022-08-08T14:03:53.198Z,4.3
2022-08-08T14:05:37.864Z,3.0
2022-08-08T14:07:42.499Z,4.4
2022-08-08T14:10:02.271Z,3.0
2022-08-08T14:13:59.878Z,3.5
2022-08-08T14:17:58.801Z,4.4
2022-08-08T14:19:58.095Z,3.0
2022-08-08T14:21:52.078Z,3.1
2022-08-08T14:24:06.788Z,3.6
2022-08-08T14:29:40.420Z,3.0
2022-08-08T14:32:10.601Z,4.4
2022-08-08T14:33:42.869Z,3.0
2022-08-08T14:35:40.855Z,3.2
2022-08-08T14:37:43.201Z,3.2
2022-08-08T14:39:48.349Z,3.6
2022-08-08T14:41:53.770Z,3.1
2022-08-08T14:44:10.907Z,3.1
2022-08-08T14:46:01.765Z,2.1
2022-08-08T14:47:45.046Z,3.8
2022-08-08T14:50:02.536Z,3.1
2022-08-08T14:51:52.191Z,4.6
2022-08-08T14:53:54.691Z,3.5
2022-08-08T14:58:02.985Z,2.5
2022-08-08T14:59:49.869Z,2.6
2022-08-08T15:03:53.346Z,3.5
2022-08-08T15:05:52.729Z,3.4
2022-08-08T15:07:42.595Z,3.0
2022-08-08T15:14:01.441Z,4.6
2022-08-08T15:17:44.624Z,2.8
2022-08-08T15:19:43.236Z,3.0
2022-08-08T15:23:43.232Z,2.6
2022-08-08T15:25:43.406Z,3.0
2022-08-08T15:29:43.923Z,3.1
2022-08-08T15:33:58.872Z,2.7
2022-08-08T15:35:44.142Z,3.4
2022-08-08T15:37:44.240Z,2.4
2022-08-08T15:39:44.759Z,5.0
2022-08-08T15:41:46.007Z,2.9
2022-08-08T15:44:00.671Z,3.8
2022-08-08T15:48:15.423Z,2.3
2022-08-08T15:49:47.845Z,2.0
2022-08-08T15:55:47.300Z,4.6
2022-08-08T15:57:45.878Z,3.6
2022-08-08T16:02:00.367Z,3.9
2022-08-08T16:03:48.245Z,4.4
2022-08-08T16:06:00.936Z,3.1
2022-08-08T16:13:47.205Z,4.6
2022-08-08T16:15:57.971Z,4.1
2022-08-08T16:18:06.241Z,19.1
2022-08-08T16:19:57.150Z,13.7
2022-08-08T16:21:49.122Z,4.1
2022-08-08T16:23:48.007Z,3.5
2022-08-08T16:25:54.631Z,5.0
2022-08-08T16:27:56.982Z,3.4
2022-08-08T16:30:13.177Z,3.2
2022-08-08T16:31:49.820Z,4.6
2022-08-08T16:33:59.048Z,4.3
2022-08-08T16:35:49.798Z,4.4
2022-08-08T16:37:48.812Z,2.4
2022-08-08T16:40:00.569Z,2.0
2022-08-08T16:41:51.226Z,3.7
2022-08-08T16:46:38.729Z,4.1
2022-08-08T16:47:49.924Z,3.1
2022-08-08T16:55:03.011Z,3.5
2022-08-08T16:55:23.809Z,2.5
2022-08-08T16:55:55.275Z,3.9
2022-08-08T16:58:16.076Z,3.4
2022-08-08T16:59:52.529Z,4.7
2022-08-08T17:01:50.631Z,3.6
2022-08-08T17:03:59.227Z,4.1
2022-08-08T17:05:52.516Z,4.6
2022-08-08T17:09:52.208Z,4.5
2022-08-08T17:11:54.582Z,4.0
2022-08-08T17:15:52.777Z,3.8
2022-08-08T17:18:01.695Z,3.9
2022-08-08T17:19:51.403Z,3.4
2022-08-08T17:21:51.665Z,5.5
2022-08-08T17:24:01.499Z,3.7
2022-08-08T17:25:54.076Z,4.4
2022-08-08T17:27:53.977Z,4.0
2022-08-08T17:31:52.330Z,4.9
2022-08-08T17:34:48.156Z,3.4
2022-08-08T17:35:55.696Z,11.3
2022-08-08T17:37:53.343Z,27.1
2022-08-08T17:40:10.946Z,5.7
2022-08-08T17:41:58.368Z,3.8
2022-08-08T17:44:00.470Z,3.0
2022-08-08T17:45:52.804Z,4.2
2022-08-08T17:47:53.905Z,4.9
2022-08-08T17:50:01.369Z,3.7
2022-08-08T17:51:53.241Z,5.0
2022-08-08T17:53:57.650Z,13.3
2022-08-08T17:56:05.650Z,4.4
2022-08-08T17:57:53.583Z,3.4
2022-08-08T17:59:58.518Z,6.1
2022-08-08T18:01:55.825Z,2.8
2022-08-08T18:03:53.567Z,3.0
2022-08-08T18:05:53.891Z,4.0
2022-08-08T18:11:54.914Z,4.5
2022-08-08T18:16:00.044Z,5.2
2022-08-08T18:18:27.410Z,3.7
2022-08-08T18:20:36.905Z,5.1
2022-08-08T18:22:00.833Z,2.5
2022-08-08T18:23:55.956Z,2.7
2022-08-08T18:25:55.457Z,3.5
2022-08-08T18:31:55.060Z,5.0
2022-08-08T18:36:02.865Z,2.5
2022-08-08T18:37:57.117Z,3.7
2022-08-08T18:39:55.248Z,3.2
2022-08-08T18:47:55.813Z,4.9
2022-08-08T18:50:00.220Z,3.4
2022-08-08T18:51:55.908Z,2.8
2022-08-08T18:54:03.051Z,3.5
2022-08-08T18:57:56.077Z,3.9
2022-08-08T19:04:10.214Z,6.6
2022-08-08T19:13:57.962Z,3.2
2022-08-08T19:15:56.884Z,4.2
2022-08-08T19:18:32.309Z,3.4
2022-08-08T19:20:02.771Z,5.0
2022-08-08T19:21:57.236Z,3.6
2022-08-08T19:23:57.429Z,3.9
2022-08-08T19:26:02.117Z,3.0
2022-08-08T19:28:00.087Z,2.3
2022-08-08T19:29:57.291Z,3.6
2022-08-08T19:31:57.408Z,2.5
2022-08-08T19:34:15.144Z,3.7
2022-08-08T19:36:08.665Z,3.2
2022-08-08T19:37:58.172Z,3.8
2022-08-08T19:39:57.676Z,2.0
2022-08-08T19:44:04.018Z,3.6
2022-08-08T19:46:01.052Z,3.5
2022-08-08T19:49:59.592Z,3.5
2022-08-08T19:51:58.035Z,3.1
2022-08-08T19:53:58.157Z,3.5
2022-08-08T19:55:58.279Z,2.7
2022-08-08T19:57:58.621Z,4.9
2022-08-08T20:06:15.281Z,3.0
2022-08-08T20:08:28.581Z,3.8
2022-08-08T20:09:59.280Z,2.8
2022-08-08T20:11:58.621Z,3.5
2022-08-08T20:14:34.809Z,4.0
2022-08-08T20:16:00.441Z,4.7
2022-08-08T20:19:58.828Z,2.4
2022-08-08T20:22:02.768Z,5.0
2022-08-08T20:23:58.780Z,3.9
2022-08-08T20:25:58.975Z,3.5
2022-08-08T20:28:04.982Z,5.5
2022-08-08T20:30:00.853Z,5.2
2022-08-08T20:32:07.134Z,4.3
2022-08-08T20:36:05.249Z,3.1
2022-08-08T20:37:59.357Z,3.6
2022-08-08T20:41:59.146Z,4.5
2022-08-08T20:43:59.390Z,5.0
2022-08-08T20:46:03.630Z,3.1
2022-08-08T20:49:59.351Z,4.1
2022-08-08T20:51:59.601Z,4.8
2022-08-08T20:55:59.410Z,3.0
2022-08-08T20:57:59.349Z,3.8
2022-08-08T20:59:59.856Z,2.5
2022-08-08T21:04:01.389Z,5.6
2022-08-08T21:08:33.564Z,7.9
2022-08-08T21:10:07.913Z,4.2
2022-08-08T21:12:02.861Z,3.5
2022-08-08T21:14:02.335Z,2.8
2022-08-08T21:19:59.992Z,4.5
2022-08-08T21:21:59.803Z,3.1
2022-08-08T21:24:03.343Z,4.3
2022-08-08T21:25:59.594Z,4.2
2022-08-08T21:28:09.387Z,4.0
2022-08-08T21:30:05.803Z,4.5
2022-08-08T21:32:01.268Z,4.4
2022-08-08T21:33:59.485Z,2.9
2022-08-08T21:38:04.117Z,2.6
2022-08-08T21:40:00.201Z,2.2
2022-08-08T21:41:59.507Z,3.7
2022-08-08T21:44:00.037Z,4.0
2022-08-08T21:48:09.615Z,4.3
2022-08-08T21:48:20.285Z,4.3
2022-08-08T21:49:59.439Z,3.5
2022-08-08T21:54:32.272Z,4.2
2022-08-08T21:54:32.401Z,5.4
2022-08-08T21:56:19.747Z,3.3
2022-08-08T21:58:05.214Z,2.6
2022-08-08T22:00:03.990Z,4.6
2022-08-08T22:02:04.299Z,3.8
2022-08-08T22:03:59.878Z,4.7
2022-08-08T22:05:59.505Z,4.5
2022-08-08T22:09:59.608Z,5.1
2022-08-08T22:12:04.863Z,4.0
2022-08-08T22:16:00.817Z,4.9
2022-08-08T22:18:00.851Z,4.0
2022-08-08T22:20:12.098Z,4.6
2022-08-08T22:23:59.498Z,7.4
2022-08-08T22:26:27.791Z,4.3
2022-08-08T22:28:02.498Z,3.6
2022-08-08T22:30:03.377Z,3.9
2022-08-08T22:32:02.154Z,4.7
2022-08-08T22:34:13.299Z,2.7
2022-08-08T22:36:04.198Z,2.5
2022-08-08T22:38:00.147Z,3.8
2022-08-08T22:40:00.799Z,3.7
2022-08-08T22:41:59.358Z,6.3
2022-08-08T22:44:03.023Z,3.8
2022-08-08T22:47:59.301Z,6.6
2022-08-08T22:49:59.959Z,3.9
2022-08-08T22:51:59.281Z,3.5
2022-08-08T22:56:01.605Z,3.8
2022-08-08T22:57:59.163Z,4.6
2022-08-08T23:02:02.102Z,5.6
2022-08-08T23:06:00.064Z,4.6
2022-08-08T23:07:59.141Z,3.7
2022-08-08T23:10:00.520Z,4.1
2022-08-08T23:12:27.611Z,3.3
2022-08-08T23:14:01.770Z,3.6
2022-08-08T23:16:40.417Z,5.2
2022-08-08T23:17:59.469Z,5.0
2022-08-08T23:19:59.381Z,4.2
2022-08-08T23:23:59.141Z,4.6
2022-08-08T23:27:59.168Z,4.0
2022-08-08T23:29:58.774Z,5.1
2022-08-08T23:31:58.776Z,4.3
2022-08-08T23:34:18.642Z,6.1
2022-08-08T23:36:07.516Z,3.2
2022-08-08T23:38:01.245Z,4.0
2022-08-08T23:39:58.670Z,3.3
2022-08-08T23:41:59.928Z,4.6
2022-08-08T23:43:58.392Z,3.8
2022-08-08T23:50:01.147Z,4.7
2022-08-08T23:54:38.950Z,4.1
2022-08-08T23:55:58.129Z,5.5
2022-08-08T23:57:58.138Z,4.9
